Time;durP1;ratioP1;P1;durP2;ratioP2;P2;SDS_P1;SDS_P2;PMS_P1;PMS_P2;Temp;Humidity;BMP_temperature;BMP_pressure;BME280_temperature;BME280_humidity;BME280_pressure;Samples;Min_cycle;Max_cycle;Signal;HPM_P1;HPM_P2
2022/11/20 00:01:53;;;;;;;18.60;10.60;;;;;;;-3.72;87.67;101453.13;6280802;22;20087;-78
2022/11/20 00:04:20;;;;;;;18.60;10.90;;;;;;;-3.73;88.18;101448.25;6253365;22;20091;-79
2022/11/20 00:06:46;;;;;;;19.38;10.82;;;;;;;-3.70;88.02;101453.56;6281543;22;20508;-80
2022/11/20 00:09:13;;;;;;;23.33;10.95;;;;;;;-3.72;88.08;101447.94;6281201;22;20087;-78
2022/11/20 00:11:39;;;;;;;17.80;10.27;;;;;;;-3.73;87.96;101449.00;6281467;22;20467;-80
2022/11/20 00:14:05;;;;;;;17.08;10.52;;;;;;;-3.74;88.19;101444.91;6282067;22;20078;-79
2022/11/20 00:16:33;;;;;;;16.80;10.75;;;;;;;-3.74;88.09;101444.91;6282083;22;20039;-79
2022/11/20 00:18:59;;;;;;;17.80;9.65;;;;;;;-3.78;88.05;101445.88;6281374;22;20448;-79
2022/11/20 00:21:27;;;;;;;20.67;9.25;;;;;;;-3.82;88.20;101442.38;6254838;22;20048;-79
2022/11/20 00:23:55;;;;;;;17.10;9.05;;;;;;;-3.88;87.95;101438.47;6254124;22;20465;-79
2022/11/20 00:26:23;;;;;;;14.00;8.25;;;;;;;-3.87;88.14;101437.41;6282135;22;20012;-79
2022/11/20 00:28:55;;;;;;;17.75;9.55;;;;;;;-3.84;88.13;101441.94;6254223;22;20020;-79
2022/11/20 00:31:22;;;;;;;13.90;9.35;;;;;;;-3.84;88.06;101442.72;6255391;22;20109;-79
2022/11/20 00:33:48;;;;;;;14.02;8.32;;;;;;;-3.85;88.35;101443.03;6255063;22;20437;-80
2022/11/20 00:36:20;;;;;;;14.82;8.68;;;;;;;-3.89;88.37;101434.34;6282814;22;20063;-79
2022/11/20 00:38:46;;;;;;;;;;;;;;;-3.90;88.51;101436.19;6282612;22;20016;-79
2022/11/20 00:41:15;;;;;;;12.57;8.32;;;;;;;-3.92;88.18;101437.59;6255397;22;19993;-80
2022/11/20 00:43:42;;;;;;;15.68;9.10;;;;;;;-3.95;88.43;101433.81;6282466;22;20023;-80
2022/11/20 00:46:20;;;;;;;17.55;9.30;;;;;;;-3.98;88.43;101434.44;6282663;22;20040;-80
2022/11/20 00:48:47;;;;;;;15.30;8.88;;;;;;;-3.97;88.60;101430.75;6282397;22;20015;-80
2022/11/20 00:51:16;;;;;;;17.85;10.15;;;;;;;-3.99;88.31;101432.94;6282307;22;20020;-80
2022/11/20 00:53:43;;;;;;;17.45;9.57;;;;;;;-3.99;88.22;101434.78;6282765;22;20048;-79
2022/11/20 00:56:13;;;;;;;23.90;10.30;;;;;;;-4.01;88.21;101427.31;6254941;22;20059;-80
2022/11/20 00:58:42;;;;;;;13.93;8.52;;;;;;;-4.04;88.54;101423.53;6282334;22;20016;-80
2022/11/20 01:01:20;;;;;;;16.73;9.45;;;;;;;-4.04;88.61;101417.56;6282533;22;20036;-79
2022/11/20 01:03:48;;;;;;;13.65;8.98;;;;;;;-4.06;88.53;101417.13;6282344;22;20386;-80
2022/11/20 01:06:17;;;;;;;24.10;10.13;;;;;;;-4.06;88.95;101419.72;6282347;22;20023;-79
2022/11/20 01:08:44;;;;;;;16.30;9.88;;;;;;;-4.05;88.94;101413.44;6282008;22;20096;-80
2022/11/20 01:11:15;;;;;;;16.65;10.13;;;;;;;-4.10;88.83;101421.44;6282513;22;20035;-79
2022/11/20 01:13:43;;;;;;;16.83;9.98;;;;;;;-4.14;88.80;101410.94;6282138;22;20020;-79
2022/11/20 01:16:18;;;;;;;18.75;9.95;;;;;;;-4.18;88.79;101410.06;6281357;22;20467;-79
2022/11/20 01:18:47;;;;;;;22.15;10.48;;;;;;;-4.22;89.17;101419.56;6281526;22;20020;-79
2022/11/20 01:21:22;;;;;;;16.27;9.18;;;;;;;-4.18;89.58;101411.91;6281581;22;20012;-79
2022/11/20 01:23:50;;;;;;;17.40;10.68;;;;;;;-4.17;89.52;101405.63;6254411;22;20038;-79
2022/11/20 01:26:19;;;;;;;18.80;11.10;;;;;;;-4.18;89.67;101404.09;6254330;22;20377;-79
2022/11/20 01:28:46;;;;;;;22.35;12.10;;;;;;;-4.20;89.96;101398.47;6253887;22;20020;-79
2022/11/20 01:31:15;;;;;;;22.98;11.32;;;;;;;-4.25;89.75;101402.03;6253418;22;20012;-79
2022/11/20 01:33:43;;;;;;;19.75;10.73;;;;;;;-4.29;89.79;101405.59;6281409;22;20088;-79
2022/11/20 01:36:11;;;;;;;15.80;10.88;;;;;;;-4.30;90.08;101406.66;6281340;22;20115;-79
2022/11/20 01:38:38;;;;;;;23.27;11.05;;;;;;;-4.34;89.51;101403.94;6282366;22;20031;-79
2022/11/20 01:41:05;;;;;;;19.38;11.13;;;;;;;-4.39;89.36;101396.34;6281834;22;20066;-79
2022/11/20 01:43:32;;;;;;;19.35;11.13;;;;;;;-4.41;89.47;101401.13;6254447;22;20091;-79
2022/11/20 01:46:13;;;;;;;21.58;11.80;;;;;;;-4.45;89.55;101395.06;6281697;22;20523;-79
2022/11/20 01:48:48;;;;;;;21.58;10.70;;;;;;;-4.45;89.47;101403.63;6282226;22;20020;-79
2022/11/20 01:51:40;;;;;;;23.55;11.82;;;;;;;-4.44;89.58;101405.13;6282573;22;20051;-79
2022/11/20 01:54:13;;;;;;;16.52;10.15;;;;;;;-4.48;89.92;101393.84;6282130;22;20020;-80
2022/11/20 01:56:43;;;;;;;20.05;9.75;;;;;;;-4.53;89.45;101396.66;6281980;22;20463;-79
2022/11/20 01:59:13;;;;;;;20.58;10.85;;;;;;;-4.50;89.55;101400.47;6282703;22;20043;-79
2022/11/20 02:01:40;;;;;;;21.52;10.80;;;;;;;-4.52;89.56;101395.56;6282136;22;20020;-80
2022/11/20 02:04:08;;;;;;;15.23;9.45;;;;;;;-4.53;89.68;101401.09;6282443;22;20022;-80
2022/11/20 02:06:48;;;;;;;14.82;9.50;;;;;;;-4.59;89.48;101400.53;6282421;22;20016;-79
2022/11/20 02:09:16;;;;;;;15.40;9.32;;;;;;;-4.66;89.62;101402.88;6282442;22;20016;-79
2022/11/20 02:11:42;;;;;;;16.70;9.52;;;;;;;-4.72;89.54;101396.38;6281747;22;20104;-79
2022/11/20 02:14:10;;;;;;;13.77;9.10;;;;;;;-4.76;89.60;101395.47;6281926;22;20047;-80
2022/11/20 02:16:40;;;;;;;15.75;9.20;;;;;;;-4.78;89.42;101398.41;6282332;22;20016;-79
2022/11/20 02:19:13;;;;;;;14.90;9.38;;;;;;;-4.81;89.71;101393.09;6282480;22;20016;-79
2022/11/20 02:21:51;;;;;;;18.95;9.20;;;;;;;-4.80;89.42;101386.84;6254673;22;20087;-79
2022/11/20 02:24:19;;;;;;;16.33;8.65;;;;;;;-4.83;89.59;101393.44;6280619;22;20100;-79
2022/11/20 02:27:04;;;;;;;16.45;9.27;;;;;;;-4.85;89.33;101389.63;6280256;22;20004;-80
2022/11/20 02:29:44;;;;;;;30.77;10.30;;;;;;;-4.85;89.50;101387.03;6280603;22;20417;-79
2022/11/20 02:32:22;;;;;;;22.92;9.93;;;;;;;-4.88;89.35;101383.22;6282055;22;20445;-80
2022/11/20 02:34:48;;;;;;;19.52;9.60;;;;;;;-4.89;89.56;101384.31;6280781;22;20023;-79
2022/11/20 02:37:15;;;;;;;16.67;8.90;;;;;;;-4.88;89.59;101379.88;6281009;22;20075;-80
2022/11/20 02:39:43;;;;;;;15.40;8.63;;;;;;;-4.91;89.43;101375.31;6282031;22;20047;-80
2022/11/20 02:42:10;;;;;;;21.50;8.82;;;;;;;-4.90;89.41;101369.81;6282050;22;20079;-79
2022/11/20 02:44:36;;;;;;;16.02;8.68;;;;;;;-4.91;89.55;101370.13;6281669;22;20481;-79
2022/11/20 02:47:03;;;;;;;15.23;9.00;;;;;;;-4.96;89.67;101371.06;6282185;22;20016;-78
2022/11/20 02:49:29;;;;;;;14.65;8.73;;;;;;;-4.94;89.80;101374.09;6282325;22;20019;-79
2022/11/20 02:51:56;;;;;;;12.93;8.13;;;;;;;-4.94;89.70;101373.34;6282028;22;20019;-79
2022/11/20 02:54:23;;;;;;;17.65;9.15;;;;;;;-4.96;89.72;101363.28;6254652;22;20133;-78
2022/11/20 02:56:49;;;;;;;17.45;8.63;;;;;;;-4.96;89.75;101370.31;6282002;22;20079;-78
2022/11/20 02:59:16;;;;;;;15.32;8.48;;;;;;;-4.99;89.90;101361.31;6281925;22;20812;-78
2022/11/20 03:01:42;;;;;;;16.58;8.80;;;;;;;-4.98;89.89;101356.88;6281841;22;20084;-78
2022/11/20 03:04:09;;;;;;;15.65;8.38;;;;;;;-5.00;89.80;101353.84;6254670;22;20406;-78
2022/11/20 03:06:35;;;;;;;14.40;8.55;;;;;;;-5.06;89.84;101350.69;6254511;22;20020;-78
2022/11/20 03:09:02;;;;;;;14.05;9.00;;;;;;;-5.12;90.16;101360.50;6253626;22;20028;-78
2022/11/20 03:11:28;;;;;;;17.75;9.13;;;;;;;-5.13;90.18;101353.78;6281365;22;20095;-79
2022/11/20 03:13:55;;;;;;;17.00;9.48;;;;;;;-5.15;90.19;101350.75;6280465;22;20023;-79
2022/11/20 03:16:23;;;;;;;16.92;9.23;;;;;;;-5.22;90.40;101350.53;6281349;22;20019;-79
2022/11/20 03:18:51;;;;;;;15.45;8.82;;;;;;;-5.23;90.30;101349.00;6281158;22;20044;-79
2022/11/20 03:21:18;;;;;;;18.90;9.35;;;;;;;-5.28;90.03;101346.59;6281345;22;20019;-79
2022/11/20 03:23:44;;;;;;;15.38;8.45;;;;;;;-5.27;90.23;101342.16;6280938;22;20016;-79
2022/11/20 03:26:17;;;;;;;15.57;8.68;;;;;;;-5.32;90.13;101348.28;6281128;22;20051;-79
2022/11/20 03:28:49;;;;;;;14.40;8.55;;;;;;;-5.37;90.07;101349.25;6253176;22;20016;-77
2022/11/20 03:31:17;;;;;;;19.38;8.52;;;;;;;-5.36;90.04;101337.03;6253635;22;20024;-79
2022/11/20 03:33:44;;;;;;;16.65;8.52;;;;;;;-5.39;89.92;101341.00;6253890;22;20016;-78
2022/11/20 03:36:13;;;;;;;15.80;8.80;;;;;;;-5.40;90.05;101341.31;6281236;22;20051;-79
2022/11/20 03:38:40;;;;;;;14.70;8.75;;;;;;;-5.43;89.55;101337.53;6280741;22;20511;-79
2022/11/20 03:41:12;;;;;;;19.15;9.23;;;;;;;-5.43;89.86;101339.38;6280230;22;20452;-79
2022/11/20 03:43:39;;;;;;;15.73;8.10;;;;;;;-5.43;89.86;101328.97;6253556;22;20025;-79
2022/11/20 03:46:07;;;;;;;11.85;7.63;;;;;;;-5.41;89.81;101329.44;6281345;22;20381;-79
2022/11/20 03:48:33;;;;;;;17.00;10.07;;;;;;;-5.43;90.09;101324.56;6282195;22;20442;-79
2022/11/20 03:51:15;;;;;;;14.73;9.05;;;;;;;-5.45;89.80;101321.50;6281633;22;20111;-78
2022/11/20 03:53:43;;;;;;;;;;;;;;;-5.45;89.79;101334.50;6282197;22;20016;-79
2022/11/20 03:56:11;;;;;;;11.30;7.80;;;;;;;-5.45;90.10;101323.34;6281877;22;20336;-80
2022/11/20 03:58:39;;;;;;;16.05;7.40;;;;;;;-5.44;89.70;101322.28;6282357;22;20102;-78
2022/11/20 04:01:15;;;;;;;13.73;8.02;;;;;;;-5.48;89.72;101327.34;6282161;22;20417;-79
2022/11/20 04:03:42;;;;;;;18.10;8.30;;;;;;;-5.49;90.05;101328.41;6282005;22;20829;-78
2022/11/20 04:06:12;;;;;;;14.20;8.93;;;;;;;-5.55;90.01;101321.88;6255294;22;20469;-79
2022/11/20 04:08:40;;;;;;;15.23;7.93;;;;;;;-5.54;90.21;101309.66;6282041;22;20019;-79
2022/11/20 04:11:22;;;;;;;14.38;8.38;;;;;;;-5.52;89.97;101312.72;6254617;22;20078;-79
2022/11/20 04:13:49;;;;;;;;;;;;;;;-5.51;89.90;101311.63;6255273;22;20016;-79
2022/11/20 04:16:16;;;;;;;11.25;6.57;;;;;;;-5.53;90.09;101311.19;6255087;22;19919;-79
2022/11/20 04:18:43;;;;;;;13.20;8.30;;;;;;;-5.52;90.25;101312.72;6281825;22;20016;-79
2022/11/20 04:21:11;;;;;;;14.85;6.93;;;;;;;-5.53;90.38;101311.94;6282364;22;20040;-79
2022/11/20 04:23:37;;;;;;;13.02;7.65;;;;;;;-5.56;90.35;101298.84;6283022;22;20017;-79
2022/11/20 04:26:09;;;;;;;13.15;8.82;;;;;;;-5.60;90.03;101306.53;6282045;22;20419;-79
2022/11/20 04:28:36;;;;;;;15.83;8.80;;;;;;;-5.60;90.09;101316.16;6282956;22;20456;-79
2022/11/20 04:31:09;;;;;;;12.98;6.47;;;;;;;-5.63;89.74;101314.94;6281941;22;20292;-79
2022/11/20 04:33:37;;;;;;;12.40;7.93;;;;;;;-5.64;90.14;101313.41;6282539;22;20020;-80
2022/11/20 04:36:06;;;;;;;15.60;7.63;;;;;;;-5.67;90.33;101315.88;6282557;22;20044;-79
2022/11/20 04:38:33;;;;;;;16.23;8.23;;;;;;;-5.68;90.16;101306.59;6282663;22;20027;-79
2022/11/20 04:41:02;;;;;;;12.70;8.10;;;;;;;-5.69;90.21;101294.69;6281861;22;20062;-78
2022/11/20 04:43:28;;;;;;;15.23;8.52;;;;;;;-5.70;89.99;101304.31;6256074;22;20025;-79
2022/11/20 04:45:56;;;;;;;12.73;7.88;;;;;;;-5.68;90.17;101291.78;6254388;22;20096;-78
2022/11/20 04:48:23;;;;;;;13.75;8.82;;;;;;;-5.66;90.04;101284.44;6282334;22;20594;-78
2022/11/20 04:50:50;;;;;;;12.07;7.57;;;;;;;-5.62;90.46;101294.94;6281646;22;20437;-79
2022/11/20 04:53:17;;;;;;;14.10;8.52;;;;;;;-5.62;90.78;101295.72;6229248;22;20151;-79
2022/11/20 04:55:44;;;;;;;17.75;9.48;;;;;;;-5.63;90.53;101288.25;6255183;22;20183;-79
2022/11/20 04:58:11;;;;;;;14.88;8.20;;;;;;;-5.65;90.37;101280.00;6282560;22;20445;-79
2022/11/20 05:00:38;;;;;;;15.05;7.72;;;;;;;-5.69;90.27;101279.13;6282554;22;20019;-79
2022/11/20 05:03:05;;;;;;;12.30;7.75;;;;;;;-5.69;90.43;101285.06;6282594;22;20052;-79
2022/11/20 05:05:32;;;;;;;16.30;7.60;;;;;;;-5.76;90.84;101280.38;6282830;22;20414;-79
2022/11/20 05:07:59;;;;;;;11.95;7.70;;;;;;;-5.80;90.53;101286.50;6281801;22;20043;-79
2022/11/20 05:10:27;;;;;;;15.27;8.55;;;;;;;-5.81;90.37;101290.19;6282601;22;20044;-79
2022/11/20 05:12:53;;;;;;;12.13;6.97;;;;;;;-5.83;90.36;101287.13;6282337;22;20078;-79
2022/11/20 05:15:19;;;;;;;11.05;7.63;;;;;;;-5.87;90.26;101281.06;6282596;22;20012;-78
2022/11/20 05:17:50;;;;;;;12.32;7.38;;;;;;;-5.91;90.61;101280.19;6282406;22;20353;-78
2022/11/20 05:20:17;;;;;;;14.35;8.00;;;;;;;-5.98;90.39;101280.69;6282051;22;20012;-78
2022/11/20 05:22:44;;;;;;;13.30;7.80;;;;;;;-6.02;90.29;101272.03;6280918;22;20481;-79
2022/11/20 05:25:11;;;;;;;17.00;7.90;;;;;;;-6.03;89.99;101260.16;6281720;22;20079;-79
2022/11/20 05:27:38;;;;;;;15.30;7.25;;;;;;;-5.99;90.46;101258.44;6281750;22;20011;-79
2022/11/20 05:30:05;;;;;;;11.75;7.00;;;;;;;-5.99;89.93;101261.03;6253901;22;20023;-79
2022/11/20 05:32:32;;;;;;;13.90;8.15;;;;;;;-5.95;90.38;101256.72;6281992;22;20031;-79
2022/11/20 05:34:58;;;;;;;14.15;7.95;;;;;;;-5.98;90.13;101252.16;6281468;22;20389;-78
2022/11/20 05:37:25;;;;;;;14.13;8.32;;;;;;;-6.01;90.22;101258.00;6281200;22;20044;-79
2022/11/20 05:39:51;;;;;;;12.23;7.45;;;;;;;-5.96;90.45;101244.84;6253967;22;20028;-78
2022/11/20 05:42:30;;;;;;;12.63;7.45;;;;;;;-5.98;90.24;101243.63;6281579;22;20095;-78
2022/11/20 05:45:01;;;;;;;13.07;7.32;;;;;;;-5.99;90.22;101240.28;6281402;22;20016;-79
2022/11/20 05:47:31;;;;;;;14.07;7.28;;;;;;;-5.97;90.48;101251.09;6281673;22;20074;-78
2022/11/20 05:49:58;;;;;;;13.63;7.45;;;;;;;-5.99;91.05;101255.84;6281604;22;20479;-79
2022/11/20 05:52:29;;;;;;;14.30;6.90;;;;;;;-6.02;90.49;101268.69;6281246;22;20028;-79
2022/11/20 05:54:55;;;;;;;18.52;7.28;;;;;;;-6.06;90.87;101264.13;6281279;22;20106;-79
2022/11/20 05:57:22;;;;;;;12.25;7.80;;;;;;;-6.09;90.67;101271.78;6281497;22;20012;-79
2022/11/20 05:59:48;;;;;;;13.85;7.88;;;;;;;-6.14;90.66;101274.53;6281127;22;20047;-79
2022/11/20 06:02:15;;;;;;;13.98;8.20;;;;;;;-6.19;90.85;101266.94;6254619;22;20020;-78
2022/11/20 06:04:41;;;;;;;11.25;6.78;;;;;;;-6.21;90.65;101276.84;6281480;22;20012;-78
2022/11/20 06:07:08;;;;;;;12.05;7.25;;;;;;;-6.24;90.31;101278.25;6254135;22;20013;-79
2022/11/20 06:09:34;;;;;;;16.65;7.85;;;;;;;-6.28;90.32;101281.75;6253535;22;20074;-80
2022/11/20 06:12:01;;;;;;;11.13;7.40;;;;;;;-6.28;90.67;101282.53;6254130;22;20016;-79
2022/11/20 06:14:27;;;;;;;13.07;8.27;;;;;;;-6.31;90.38;101290.16;6228909;22;20019;-79
2022/11/20 06:16:54;;;;;;;13.20;7.25;;;;;;;-6.35;90.92;101289.25;6253933;22;20098;-79
2022/11/20 06:19:21;;;;;;;14.88;7.00;;;;;;;-6.36;90.97;101290.34;6281435;22;20090;-78
2022/11/20 06:21:49;;;;;;;12.98;7.40;;;;;;;-6.36;90.48;101282.56;6280522;22;20026;-78
2022/11/20 06:24:16;;;;;;;13.32;7.15;;;;;;;-6.35;90.61;101290.03;6254135;22;20040;-78
2022/11/20 06:26:43;;;;;;;16.00;8.27;;;;;;;-6.32;90.58;101289.41;6281148;22;20083;-78
2022/11/20 06:29:10;;;;;;;14.40;7.63;;;;;;;-6.32;90.25;101288.63;6281334;22;20020;-78
2022/11/20 06:31:37;;;;;;;12.82;8.20;;;;;;;-6.29;90.67;101291.38;6253824;22;20101;-78
2022/11/20 06:34:06;;;;;;;15.35;7.70;;;;;;;-6.27;90.56;101289.22;6254263;22;20019;-77
2022/11/20 06:36:33;;;;;;;13.00;7.22;;;;;;;-6.26;90.29;101288.16;6281370;22;20023;-77
2022/11/20 06:39:00;;;;;;;13.43;7.53;;;;;;;-6.27;90.38;101289.22;6281615;22;20020;-78
2022/11/20 06:41:27;;;;;;;16.98;8.07;;;;;;;-6.24;90.68;101283.44;6282099;22;20027;-77
2022/11/20 06:43:54;;;;;;;11.82;7.75;;;;;;;-6.22;90.47;101283.88;6254218;22;20025;-78
2022/11/20 06:46:21;;;;;;;14.13;7.75;;;;;;;-6.23;90.64;101290.13;6254969;22;20066;-78
2022/11/20 06:48:49;;;;;;;13.70;7.65;;;;;;;-6.24;90.47;101291.19;6281774;22;20043;-79
2022/11/20 06:51:16;;;;;;;10.80;6.72;;;;;;;-6.23;91.31;101286.78;6253770;22;20020;-78
2022/11/20 06:53:42;;;;;;;12.02;8.15;;;;;;;-6.20;90.92;101296.53;6281322;22;20425;-79
2022/11/20 06:56:09;;;;;;;20.33;8.85;;;;;;;-6.19;91.34;101290.25;6281447;22;20008;-84
2022/11/20 06:58:36;;;;;;;13.02;8.25;;;;;;;-6.16;91.12;101277.44;6254375;22;20030;-79
2022/11/20 07:01:09;;;;;;;17.13;9.77;;;;;;;-6.16;91.31;101271.50;6281191;22;20016;-80
2022/11/20 07:03:36;;;;;;;13.82;7.93;;;;;;;-6.15;91.13;101263.41;6282032;22;20023;-79
2022/11/20 07:06:04;;;;;;;12.48;7.63;;;;;;;-6.09;91.16;101259.56;6253289;22;20086;-79
2022/11/20 07:08:30;;;;;;;14.20;8.38;;;;;;;-6.06;91.23;101265.97;6281904;22;20016;-79
2022/11/20 07:10:59;;;;;;;26.42;11.75;;;;;;;-6.04;91.42;101268.25;6282147;22;20016;-78
2022/11/20 07:13:27;;;;;;;36.20;15.40;;;;;;;-6.03;91.48;101267.94;6282661;22;20013;-78
2022/11/20 07:15:54;;;;;;;31.50;14.93;;;;;;;-6.02;91.16;101264.28;6282619;22;20460;-81
2022/11/20 07:18:20;;;;;;;23.23;11.15;;;;;;;-6.01;91.69;101262.44;6281961;22;20016;-80
2022/11/20 07:20:47;;;;;;;12.27;7.85;;;;;;;-6.01;91.47;101259.84;6281816;22;20016;-80
2022/11/20 07:23:13;;;;;;;14.40;8.77;;;;;;;-5.98;91.81;101265.13;6281581;22;20078;-83
2022/11/20 07:25:40;;;;;;;16.20;8.20;;;;;;;-5.94;91.91;101268.63;6281901;22;20016;-81
2022/11/20 07:28:06;;;;;;;14.80;8.10;;;;;;;-5.91;91.86;101265.41;6281456;22;20095;-79
2022/11/20 07:30:33;;;;;;;11.25;6.68;;;;;;;-5.89;91.67;101262.50;6254003;22;20051;-78
2022/11/20 07:32:59;;;;;;;15.60;7.55;;;;;;;-5.87;91.98;101262.91;6281445;22;20441;-76
2022/11/20 07:35:26;;;;;;;13.00;7.72;;;;;;;-5.85;91.68;101258.16;6281764;22;20016;-85
2022/11/20 07:37:52;;;;;;;13.80;7.30;;;;;;;-5.83;91.76;101256.03;6254928;22;20422;-79
2022/11/20 07:40:19;;;;;;;12.82;7.47;;;;;;;-5.82;91.71;101253.13;6229165;22;20131;-78
2022/11/20 07:42:50;;;;;;;13.85;8.65;;;;;;;-5.78;91.87;101245.47;6281774;22;20017;-79
2022/11/20 07:45:21;;;;;;;13.18;8.07;;;;;;;-5.75;91.96;101244.84;6281716;22;20434;-78
2022/11/20 07:47:48;;;;;;;18.38;9.23;;;;;;;-5.72;91.91;101257.16;6280898;22;20016;-79
2022/11/20 07:50:14;;;;;;;16.80;8.77;;;;;;;-5.69;92.39;101255.78;6281489;22;20020;-78
2022/11/20 07:52:41;;;;;;;19.45;9.82;;;;;;;-5.63;92.11;101254.53;6281371;22;20017;-79
2022/11/20 07:55:09;;;;;;;14.20;8.65;;;;;;;-5.56;92.50;101260.69;6281522;22;20088;-79
2022/11/20 07:57:35;;;;;;;33.63;15.38;;;;;;;-5.54;92.57;101266.31;6281486;22;20020;-79
2022/11/20 08:00:08;;;;;;;23.65;12.77;;;;;;;-5.55;92.57;101264.81;6281605;22;20096;-78
2022/11/20 08:02:39;;;;;;;23.05;12.00;;;;;;;-5.49;92.64;101260.19;6281084;22;20016;-79
2022/11/20 08:05:07;;;;;;;21.70;11.35;;;;;;;-5.43;92.38;101259.69;6254298;22;20063;-78
2022/11/20 08:07:38;;;;;;;22.35;11.48;;;;;;;-5.36;92.21;101261.75;6254507;22;20390;-79
2022/11/20 08:10:06;;;;;;;20.10;10.98;;;;;;;-5.28;92.84;101257.59;6281550;22;20022;-80
2022/11/20 08:15:18;;;;;;;16.98;10.35;;;;;;;-5.16;92.78;101239.44;6281573;22;20070;-77
2022/11/20 08:17:44;;;;;;;17.67;10.35;;;;;;;-5.10;93.03;101243.34;6280735;22;20016;-77
2022/11/20 08:20:31;;;;;;;19.27;11.18;;;;;;;-5.01;93.00;101251.81;6280617;22;20422;-79
2022/11/20 08:23:03;;;;;;;19.20;10.23;;;;;;;-4.94;93.08;101246.84;6280365;22;20042;-77
2022/11/20 08:25:30;;;;;;;17.65;9.90;;;;;;;-4.83;93.15;101242.78;6280349;22;20448;-78
2022/11/20 08:27:58;;;;;;;19.85;10.60;;;;;;;-4.76;93.19;101242.22;6279928;22;20445;-77
2022/11/20 08:30:27;;;;;;;19.05;9.13;;;;;;;-4.69;93.50;101239.84;6279917;22;20016;-76
2022/11/20 08:32:54;;;;;;;16.52;10.40;;;;;;;-4.65;93.29;101240.72;6280976;22;20013;-77
2022/11/20 08:35:21;;;;;;;20.75;9.90;;;;;;;-4.59;93.70;101236.84;6281528;22;20087;-77
2022/11/20 08:37:48;;;;;;;18.60;10.00;;;;;;;-4.54;93.65;101249.63;6281901;22;20012;-76
2022/11/20 08:40:15;;;;;;;19.20;10.40;;;;;;;-4.47;93.75;101244.66;6281685;22;20449;-76
2022/11/20 08:42:54;;;;;;;15.00;9.85;;;;;;;-4.41;93.94;101250.38;6254689;22;20023;-76
2022/11/20 08:45:20;;;;;;;18.83;11.10;;;;;;;-4.34;94.05;101244.63;6281138;22;20084;-76
2022/11/20 08:47:47;;;;;;;18.77;10.40;;;;;;;-4.27;94.18;101250.03;6281935;22;20488;-78
2022/11/20 08:50:15;;;;;;;19.50;10.45;;;;;;;-4.19;94.40;101249.94;6281926;22;20163;-77
2022/11/20 08:52:42;;;;;;;17.48;10.02;;;;;;;-4.14;94.32;101241.91;6281888;22;20020;-76
2022/11/20 08:55:10;;;;;;;21.30;11.63;;;;;;;-4.07;94.54;101246.56;6254738;22;20020;-77
2022/11/20 08:57:39;;;;;;;20.10;10.80;;;;;;;-4.02;94.43;101238.53;6280882;22;20044;-76
2022/11/20 09:00:07;;;;;;;18.80;10.23;;;;;;;-3.96;94.90;101236.44;6280788;22;20449;-76
2022/11/20 09:02:35;;;;;;;24.45;10.50;;;;;;;-3.91;94.82;101236.22;6281179;22;20784;-76
2022/11/20 09:05:02;;;;;;;24.90;11.63;;;;;;;-3.86;94.61;101239.34;6282237;22;20378;-77
2022/11/20 09:07:30;;;;;;;17.80;10.68;;;;;;;-3.83;94.97;101236.09;6281597;22;20020;-77
2022/11/20 09:09:56;;;;;;;20.23;11.02;;;;;;;-3.78;95.24;101237.72;6282258;22;20457;-77
2022/11/20 09:12:43;;;;;;;18.33;11.13;;;;;;;-3.70;95.21;101237.59;6282156;22;20471;-77
2022/11/20 09:15:09;;;;;;;20.48;12.00;;;;;;;-3.59;95.80;101242.31;6281363;22;20042;-77
2022/11/20 09:17:36;;;;;;;21.80;12.38;;;;;;;-3.52;95.78;101234.69;6281593;22;20441;-77
2022/11/20 09:20:03;;;;;;;20.85;12.27;;;;;;;-3.45;95.83;101237.50;6282034;22;20434;-77
2022/11/20 09:22:30;;;;;;;22.98;11.63;;;;;;;-3.37;95.62;101226.94;6254271;22;20125;-77
2022/11/20 09:24:56;;;;;;;22.33;12.52;;;;;;;-3.32;95.77;101212.94;6254386;22;20103;-77
2022/11/20 09:27:23;;;;;;;21.90;11.85;;;;;;;-3.23;96.09;101199.75;6253903;22;20016;-78
2022/11/20 09:29:49;;;;;;;21.20;12.05;;;;;;;-3.12;95.73;101205.97;6253405;22;20446;-77
2022/11/20 09:32:16;;;;;;;22.02;13.25;;;;;;;-3.03;95.81;101196.16;6281540;22;20400;-78
2022/11/20 09:34:42;;;;;;;21.60;12.77;;;;;;;-2.98;95.96;101182.13;6281594;22;20090;-78
2022/11/20 09:37:09;;;;;;;26.20;13.18;;;;;;;-2.93;95.65;101181.88;6281469;22;20016;-77
2022/11/20 09:39:38;;;;;;;28.73;13.77;;;;;;;-2.87;95.83;101188.34;6281143;22;20090;-78
2022/11/20 09:42:20;;;;;;;24.38;13.45;;;;;;;-2.79;95.73;101187.41;6281494;22;20013;-78
2022/11/20 09:45:15;;;;;;;23.13;13.05;;;;;;;-2.72;95.43;101188.31;6281378;22;20103;-79
2022/11/20 09:48:01;;;;;;;26.48;15.05;;;;;;;-2.63;95.55;101177.72;6282134;22;20012;-79
2022/11/20 09:50:42;;;;;;;24.83;14.45;;;;;;;-2.55;95.61;101178.63;6282007;22;20654;-79
2022/11/20 09:53:12;;;;;;;34.72;17.45;;;;;;;-2.47;95.51;101172.50;6282402;22;20012;-80
2022/11/20 09:55:39;;;;;;;29.92;15.73;;;;;;;-2.40;95.69;101178.59;6281540;22;20508;-81
2022/11/20 09:58:12;;;;;;;24.40;14.68;;;;;;;-2.30;96.05;101177.31;6253683;22;20095;-81
2022/11/20 10:00:38;;;;;;;32.15;15.38;;;;;;;-2.22;96.08;101178.22;6254269;22;20181;-80
2022/11/20 10:03:17;;;;;;;26.58;14.75;;;;;;;-2.16;95.72;101174.25;6281448;22;20515;-80
2022/11/20 10:05:47;;;;;;;23.80;13.32;;;;;;;-2.09;96.20;101159.50;6281654;22;20416;-79
2022/11/20 10:08:24;;;;;;;26.13;14.63;;;;;;;-2.02;96.00;101164.88;6281853;22;20079;-85
2022/11/20 10:11:12;;;;;;;22.63;13.35;;;;;;;-1.92;96.15;101157.56;6254703;22;20022;-83
2022/11/20 10:13:57;;;;;;;30.05;15.65;;;;;;;-1.86;96.06;101156.94;6280889;22;20104;-81
2022/11/20 10:16:29;;;;;;;23.98;14.15;;;;;;;-1.74;96.04;101145.63;6281311;22;20020;-79
2022/11/20 10:19:01;;;;;;;27.08;14.20;;;;;;;-1.66;95.62;101149.88;6281362;22;20020;-79
2022/11/20 10:21:46;;;;;;;36.53;19.25;;;;;;;-1.59;95.48;101142.13;6253663;22;20025;-78
2022/11/20 10:24:33;;;;;;;26.85;14.55;;;;;;;-1.49;95.22;101143.44;6281323;22;20020;-79
2022/11/20 10:27:23;;;;;;;23.10;12.48;;;;;;;-1.39;95.55;101135.03;6281082;22;20494;-80
2022/11/20 10:30:02;;;;;;;23.73;13.20;;;;;;;-1.35;95.58;101133.97;6206456;22;20453;-79
2022/11/20 10:32:38;;;;;;;26.42;13.52;;;;;;;-1.27;95.38;101132.25;6281053;22;20051;-80
2022/11/20 10:35:26;;;;;;;21.08;13.05;;;;;;;-1.21;95.28;101123.03;6281482;22;20012;-80
2022/11/20 10:37:58;;;;;;;21.52;13.38;;;;;;;-1.14;95.24;101115.28;6281592;22;20066;-80
2022/11/20 10:40:38;;;;;;;19.92;12.55;;;;;;;-1.09;95.08;101104.53;6280983;22;20107;-80
2022/11/20 10:43:13;;;;;;;22.77;14.23;;;;;;;-1.01;94.92;101113.22;6281040;22;20017;-80
2022/11/20 10:45:55;;;;;;;22.92;13.90;;;;;;;-0.94;94.63;101104.75;6281233;22;20013;-82
2022/11/20 10:48:26;;;;;;;23.17;14.32;;;;;;;-0.88;94.58;101108.56;6279388;22;20129;-80
2022/11/20 10:51:08;;;;;;;26.33;15.38;;;;;;;-0.79;94.85;101106.44;6281399;22;20020;-81
2022/11/20 10:53:59;;;;;;;25.50;14.77;;;;;;;-0.73;94.43;101084.13;6280903;22;20024;-82
2022/11/20 10:56:34;;;;;;;28.90;16.00;;;;;;;-0.67;94.92;101080.84;6280352;22;20070;-81
2022/11/20 10:59:19;;;;;;;27.05;17.30;;;;;;;-0.62;94.67;101079.78;6281208;22;20026;-80
2022/11/20 11:01:46;;;;;;;27.05;15.85;;;;;;;-0.55;94.78;101079.88;6281218;22;20023;-79
2022/11/20 11:04:41;;;;;;;29.33;14.77;;;;;;;-0.48;94.87;101079.97;6281200;22;20023;-79
2022/11/20 11:07:17;;;;;;;22.58;14.43;;;;;;;-0.38;95.03;101068.09;6282502;22;20473;-78
2022/11/20 11:09:49;;;;;;;27.95;16.15;;;;;;;-0.31;95.09;101060.34;6253862;22;20016;-79
2022/11/20 11:12:16;;;;;;;;;;;;;;;-0.20;94.84;101060.47;6281977;22;20039;-79
2022/11/20 11:14:48;;;;;;;28.88;13.98;;;;;;;-0.10;95.04;101060.56;6281245;22;20337;-77
2022/11/20 11:17:27;;;;;;;;;;;;;;;-0.03;95.14;101057.28;6281836;22;20019;-77
2022/11/20 11:20:17;;;;;;;26.17;14.50;;;;;;;0.00;95.10;101046.81;6281370;22;19919;-77
2022/11/20 11:22:50;;;;;;;25.40;14.18;;;;;;;0.03;95.03;101037.50;6281438;22;20098;-79
2022/11/20 11:25:19;;;;;;;28.80;16.33;;;;;;;0.07;95.12;101029.69;6253227;22;20024;-77
2022/11/20 11:27:48;;;;;;;26.10;16.15;;;;;;;0.10;95.40;101027.09;6253657;22;20008;-78
2022/11/20 11:30:16;;;;;;;27.20;16.05;;;;;;;0.16;95.11;101015.19;6280756;22;20087;-78